createdAt,value
2023-07-31T00:04:24.311Z,76.79
2023-07-31T00:09:26.228Z,76.99
2023-07-31T00:14:28.440Z,77.19
2023-07-31T00:19:30.480Z,77.52
2023-07-31T00:24:32.734Z,77.71
2023-07-31T00:29:34.789Z,78.24
2023-07-31T00:34:36.892Z,78.25
2023-07-31T00:39:38.969Z,78.34
2023-07-31T00:44:41.029Z,78.44
2023-07-31T00:49:43.261Z,78.86
2023-07-31T00:54:45.832Z,79.08
2023-07-31T00:59:47.885Z,78.71
2023-07-31T01:04:53.115Z,78.97
2023-07-31T01:10:22.394Z,78.56
2023-07-31T01:15:24.671Z,78.60
2023-07-31T01:20:28.203Z,79.27
2023-07-31T01:25:53.772Z,78.82
2023-07-31T01:31:00.637Z,78.74
2023-07-31T01:36:03.236Z,78.57
2023-07-31T01:41:05.287Z,78.23
2023-07-31T01:46:07.112Z,77.86
2023-07-31T01:51:10.150Z,77.54
2023-07-31T01:56:12.313Z,76.82
2023-07-31T02:01:14.209Z,76.85
2023-07-31T02:06:16.230Z,76.55
2023-07-31T02:11:19.446Z,76.85
2023-07-31T02:16:21.468Z,76.34
2023-07-31T02:21:23.918Z,76.23
2023-07-31T02:26:25.972Z,76.03
2023-07-31T02:31:27.995Z,76.00
2023-07-31T02:36:29.963Z,75.37
2023-07-31T02:41:31.843Z,74.93
2023-07-31T02:46:33.956Z,75.10
2023-07-31T02:51:36.026Z,74.86
2023-07-31T02:56:38.374Z,75.04
2023-07-31T03:01:40.626Z,74.87
2023-07-31T03:06:42.736Z,74.67
2023-07-31T03:11:44.838Z,74.17
2023-07-31T03:16:46.976Z,74.28
2023-07-31T03:21:49.078Z,74.15
2023-07-31T03:26:51.071Z,73.33
2023-07-31T03:31:53.114Z,72.75
2023-07-31T03:36:55.125Z,72.74
2023-07-31T03:41:57.131Z,72.70
2023-07-31T03:46:59.515Z,72.55
2023-07-31T03:52:05.310Z,72.56
2023-07-31T03:57:07.399Z,72.80
2023-07-31T04:02:09.293Z,72.68
2023-07-31T04:07:18.603Z,72.93
2023-07-31T04:12:20.555Z,72.83
2023-07-31T04:17:22.441Z,72.65
2023-07-31T04:22:24.402Z,72.54
2023-07-31T04:27:26.696Z,72.10
2023-07-31T04:32:30.166Z,71.55
2023-07-31T04:37:32.119Z,70.89
2023-07-31T04:42:34.011Z,70.53
2023-07-31T04:47:35.797Z,70.18
2023-07-31T04:52:37.733Z,70.01
2023-07-31T04:57:39.840Z,69.75
2023-07-31T05:02:41.760Z,69.47
2023-07-31T05:07:44.021Z,68.99
2023-07-31T05:12:46.016Z,68.38
2023-07-31T05:17:47.979Z,67.35
2023-07-31T05:22:50.035Z,65.80
2023-07-31T05:27:51.982Z,63.83
2023-07-31T05:32:53.926Z,60.49
2023-07-31T05:37:56.110Z,55.71
2023-07-31T05:42:57.958Z,51.65
2023-07-31T05:47:59.924Z,49.02
2023-07-31T05:53:01.837Z,46.79
2023-07-31T05:58:03.890Z,44.63
2023-07-31T06:03:05.967Z,43.52
2023-07-31T06:08:08.015Z,41.18
2023-07-31T06:13:10.341Z,39.44
2023-07-31T06:18:12.451Z,37.84
2023-07-31T06:23:14.355Z,35.66
2023-07-31T06:28:16.436Z,34.71
2023-07-31T06:33:18.728Z,33.79
2023-07-31T06:38:26.524Z,33.25
2023-07-31T06:43:29.570Z,31.55
2023-07-31T06:48:31.876Z,31.07
2023-07-31T06:53:33.968Z,30.00
2023-07-31T06:58:35.805Z,29.92
2023-07-31T07:03:37.806Z,29.36
2023-07-31T07:08:40.009Z,28.95
2023-07-31T07:13:42.119Z,28.95
2023-07-31T07:18:58.417Z,29.33
2023-07-31T07:24:05.955Z,29.71
2023-07-31T07:29:09.277Z,31.15
2023-07-31T07:34:11.260Z,32.30
2023-07-31T07:39:13.479Z,33.04
2023-07-31T07:44:15.725Z,32.63
2023-07-31T07:49:17.903Z,33.05
2023-07-31T07:54:21.483Z,32.54
2023-07-31T07:59:23.451Z,32.89
2023-07-31T08:04:25.561Z,33.24
2023-07-31T08:09:27.426Z,32.60
2023-07-31T08:14:31.379Z,32.88
2023-07-31T08:19:35.482Z,31.18
2023-07-31T08:24:37.389Z,30.34
2023-07-31T08:29:39.580Z,30.12
2023-07-31T08:34:43.500Z,29.64
2023-07-31T08:39:45.516Z,29.71
2023-07-31T08:44:48.677Z,29.02
2023-07-31T08:49:52.466Z,29.22
2023-07-31T08:54:54.536Z,29.05
2023-07-31T08:59:58.864Z,28.01
2023-07-31T09:05:01.443Z,27.27
2023-07-31T09:10:05.047Z,26.79
2023-07-31T09:15:07.934Z,25.52
2023-07-31T09:20:22.677Z,26.98
2023-07-31T09:25:26.828Z,28.13
2023-07-31T09:30:29.069Z,29.11
2023-07-31T09:35:35.642Z,29.67
2023-07-31T09:40:47.657Z,29.13
2023-07-31T09:45:58.291Z,29.21
2023-07-31T09:51:05.628Z,29.09
2023-07-31T09:56:07.626Z,28.84
2023-07-31T10:01:09.840Z,29.68
2023-07-31T10:06:13.040Z,30.21
2023-07-31T10:11:16.691Z,31.40
2023-07-31T10:16:19.814Z,31.60
2023-07-31T10:21:21.786Z,31.72
2023-07-31T10:26:24.976Z,32.03
2023-07-31T10:31:29.296Z,33.62
2023-07-31T10:36:31.109Z,33.71
2023-07-31T10:41:33.316Z,32.09
2023-07-31T10:46:36.118Z,31.98
2023-07-31T10:51:38.169Z,32.82
2023-07-31T10:56:41.373Z,32.60
2023-07-31T11:01:54.058Z,33.72
2023-07-31T11:07:00.952Z,33.18
2023-07-31T11:12:03.254Z,33.77
2023-07-31T11:17:09.066Z,33.60
2023-07-31T11:22:11.867Z,34.51
2023-07-31T11:27:13.904Z,35.05
2023-07-31T11:32:19.184Z,35.15
2023-07-31T11:37:21.638Z,35.31
2023-07-31T11:42:23.510Z,35.64
2023-07-31T11:47:27.206Z,35.48
2023-07-31T11:52:35.307Z,35.45
2023-07-31T11:57:40.669Z,35.11
2023-07-31T12:02:43.666Z,35.40
2023-07-31T12:07:52.739Z,35.11
2023-07-31T12:13:00.313Z,35.05
2023-07-31T12:18:05.566Z,34.95
2023-07-31T12:23:08.086Z,34.74
2023-07-31T12:28:12.767Z,34.48
2023-07-31T12:33:16.180Z,33.75
2023-07-31T12:38:18.250Z,34.16
2023-07-31T12:43:21.445Z,33.40
2023-07-31T12:48:23.589Z,33.49
2023-07-31T12:53:25.754Z,33.40
2023-07-31T12:58:28.060Z,32.88
2023-07-31T13:03:30.051Z,32.48
2023-07-31T13:08:32.068Z,33.03
2023-07-31T13:13:34.091Z,33.35
2023-07-31T13:18:35.935Z,34.28
2023-07-31T13:23:38.232Z,33.60
2023-07-31T13:28:40.212Z,33.08
2023-07-31T13:33:44.255Z,33.49
2023-07-31T13:38:46.662Z,33.63
2023-07-31T13:43:48.615Z,34.36
2023-07-31T13:48:50.563Z,34.74
2023-07-31T13:53:52.506Z,35.06
2023-07-31T13:58:54.602Z,35.27
2023-07-31T14:03:56.698Z,35.63
2023-07-31T14:08:58.661Z,37.17
2023-07-31T14:14:02.505Z,37.48
2023-07-31T14:19:04.654Z,37.61
2023-07-31T14:24:07.213Z,38.49
2023-07-31T14:29:09.501Z,39.25
2023-07-31T14:34:11.467Z,39.92
2023-07-31T14:39:13.417Z,39.59
2023-07-31T14:44:16.489Z,39.84
2023-07-31T14:49:18.556Z,40.21
2023-07-31T14:54:20.700Z,40.34
2023-07-31T14:59:22.518Z,40.74
2023-07-31T15:04:24.697Z,39.43
2023-07-31T15:09:26.602Z,39.03
2023-07-31T15:14:32.429Z,38.88
2023-07-31T15:19:36.314Z,38.66
2023-07-31T15:24:38.302Z,38.90
2023-07-31T15:29:40.206Z,38.26
2023-07-31T15:34:42.433Z,38.94
2023-07-31T15:39:44.521Z,38.41
2023-07-31T15:44:46.592Z,39.30
2023-07-31T15:49:48.542Z,39.80
2023-07-31T15:54:54.497Z,40.50
2023-07-31T15:59:56.902Z,40.90
2023-07-31T16:04:59.124Z,40.87
2023-07-31T16:10:01.146Z,40.78
2023-07-31T16:15:03.117Z,41.11
2023-07-31T16:20:07.460Z,40.54
2023-07-31T16:25:12.563Z,40.58
2023-07-31T16:30:14.569Z,40.68
2023-07-31T16:35:17.027Z,41.41
2023-07-31T16:40:18.888Z,42.26
2023-07-31T16:45:20.760Z,42.57
2023-07-31T16:50:24.345Z,43.38
2023-07-31T16:55:28.859Z,43.37
2023-07-31T17:00:32.190Z,43.49
2023-07-31T17:05:34.292Z,43.88
2023-07-31T17:10:36.323Z,44.44
2023-07-31T17:15:38.231Z,44.41
2023-07-31T17:20:40.302Z,44.39
2023-07-31T17:25:42.334Z,44.71
2023-07-31T17:30:44.675Z,44.85
2023-07-31T17:35:47.007Z,45.01
2023-07-31T17:40:49.004Z,44.98
2023-07-31T17:45:51.996Z,44.99
2023-07-31T17:50:54.486Z,44.83
2023-07-31T17:55:56.381Z,45.28
2023-07-31T18:00:58.526Z,45.44
2023-07-31T18:06:00.476Z,45.76
2023-07-31T18:11:04.436Z,46.02
2023-07-31T18:16:06.388Z,46.65
2023-07-31T18:21:08.406Z,47.08
2023-07-31T18:26:10.422Z,47.47
2023-07-31T18:31:12.427Z,48.67
2023-07-31T18:36:14.505Z,49.21
2023-07-31T18:41:16.505Z,50.16
2023-07-31T18:46:18.680Z,50.65
2023-07-31T18:51:20.802Z,51.44
2023-07-31T18:56:22.714Z,52.17
2023-07-31T19:01:25.633Z,53.10
2023-07-31T19:06:28.769Z,54.31
2023-07-31T19:11:32.946Z,55.26
2023-07-31T19:16:35.341Z,56.03
2023-07-31T19:21:37.571Z,56.58
2023-07-31T19:26:42.740Z,57.21
2023-07-31T19:31:44.984Z,57.86
2023-07-31T19:36:49.257Z,59.13
2023-07-31T19:41:51.270Z,59.78
2023-07-31T19:46:53.475Z,60.58
2023-07-31T19:51:55.368Z,61.03
2023-07-31T19:56:58.561Z,61.92
2023-07-31T20:02:00.668Z,62.18
2023-07-31T20:07:02.553Z,62.26
2023-07-31T20:12:05.151Z,62.19
2023-07-31T20:17:07.109Z,62.01
2023-07-31T20:22:09.553Z,62.48
2023-07-31T20:27:11.577Z,62.66
2023-07-31T20:32:15.092Z,62.93
2023-07-31T20:37:17.286Z,63.32
2023-07-31T20:42:21.914Z,63.54
2023-07-31T20:47:24.220Z,63.96
2023-07-31T20:52:26.155Z,63.95
2023-07-31T20:57:29.194Z,64.19
2023-07-31T21:02:31.114Z,64.72
2023-07-31T21:07:33.196Z,64.96
2023-07-31T21:12:39.560Z,65.04
2023-07-31T21:17:41.553Z,65.52
2023-07-31T21:22:45.308Z,65.69
2023-07-31T21:27:48.714Z,65.64
2023-07-31T21:32:50.581Z,66.08
2023-07-31T21:38:14.972Z,65.95
2023-07-31T21:43:16.982Z,65.96
2023-07-31T21:48:19.183Z,65.82
2023-07-31T21:53:21.333Z,66.20
2023-07-31T21:58:23.304Z,66.69
2023-07-31T22:03:25.266Z,66.37
2023-07-31T22:08:27.434Z,66.78
2023-07-31T22:13:29.815Z,66.73
2023-07-31T22:18:31.870Z,66.91
2023-07-31T22:23:34.620Z,66.74
2023-07-31T22:28:36.728Z,66.78
2023-07-31T22:33:38.830Z,66.60
2023-07-31T22:38:40.924Z,66.64
2023-07-31T22:43:42.826Z,66.53
2023-07-31T22:48:44.846Z,66.47
2023-07-31T22:53:46.685Z,66.35
2023-07-31T22:58:48.538Z,66.36
2023-07-31T23:03:50.454Z,66.00
2023-07-31T23:08:54.733Z,65.79
2023-07-31T23:13:56.830Z,65.88
2023-07-31T23:18:58.762Z,66.03
2023-07-31T23:24:01.026Z,65.89
2023-07-31T23:29:03.108Z,66.05
2023-07-31T23:34:08.418Z,66.04
2023-07-31T23:39:30.384Z,66.17
2023-07-31T23:44:33.846Z,66.19
2023-07-31T23:49:35.797Z,66.20
2023-07-31T23:54:37.891Z,65.95
2023-07-31T23:59:40.291Z,66.09
